createdAt,value
2022-09-10T00:39:01.367Z,0.1
2022-09-10T00:41:01.229Z,0.2
2022-09-10T00:42:01.110Z,0.3
2022-09-10T00:44:01.381Z,0.4
2022-09-10T00:45:01.101Z,0.5
2022-09-10T00:47:01.642Z,0.6
2022-09-10T00:48:01.109Z,0.7
2022-09-10T00:50:01.569Z,0.8
2022-09-10T00:51:01.106Z,0.9
2022-09-10T00:53:01.378Z,1.0
2022-09-10T00:54:01.105Z,0.9
2022-09-10T00:56:01.327Z,0.8
2022-09-10T00:57:01.735Z,0.7
2022-09-10T00:59:01.447Z,0.6
2022-09-10T01:00:01.114Z,0.5
2022-09-10T01:02:01.481Z,0.4
2022-09-10T01:03:01.170Z,0.3
2022-09-10T01:05:05.835Z,0.2
2022-09-10T01:06:01.112Z,0.1
2022-09-10T01:14:01.514Z,0.2
2022-09-10T01:15:01.204Z,0.3
2022-09-10T01:29:01.358Z,0.2
2022-09-10T01:30:01.134Z,0.1
2022-09-10T03:49:01.137Z,0.1
2022-09-10T03:51:01.183Z,0.2
2022-09-10T03:52:01.114Z,0.3
2022-09-10T03:54:01.316Z,0.4
2022-09-10T03:55:01.119Z,0.5
2022-09-10T03:58:01.107Z,0.7
2022-09-10T03:59:01.305Z,0.9
2022-09-10T04:00:01.107Z,1.1
2022-09-10T04:01:01.138Z,1.3
2022-09-10T04:02:01.161Z,1.5
2022-09-10T04:03:02.004Z,1.8
2022-09-10T04:04:16.137Z,2.2
2022-09-10T04:05:16.108Z,2.5
2022-09-10T04:06:01.490Z,2.9
2022-09-10T04:07:01.106Z,3.4
2022-09-10T04:08:01.106Z,3.9
2022-09-10T04:09:01.107Z,4.7
2022-09-10T04:10:01.111Z,5.5
2022-09-10T04:11:06.438Z,6.3
2022-09-10T04:12:01.127Z,7.5
2022-09-10T04:13:01.211Z,8.7
2022-09-10T04:14:01.108Z,10.3
2022-09-10T04:15:01.147Z,11.9
2022-09-10T04:16:01.320Z,13.5
2022-09-10T04:17:01.171Z,16.1
2022-09-10T04:18:01.794Z,18.7
2022-09-10T04:19:01.379Z,22.6
2022-09-10T04:20:01.138Z,26.5
2022-09-10T04:21:01.447Z,30.5
2022-09-10T04:22:01.099Z,36.3
2022-09-10T04:23:01.158Z,42.2
2022-09-10T04:24:01.104Z,51.1
2022-09-10T04:25:01.101Z,60.1
2022-09-10T04:26:01.387Z,69.0
2022-09-10T04:27:01.106Z,82.4
2022-09-10T04:28:01.419Z,95.8
2022-09-10T04:29:01.107Z,115.5
2022-09-10T04:30:01.109Z,135.3
2022-09-10T04:31:01.308Z,155.0
2022-09-10T04:32:01.207Z,182.4
2022-09-10T04:33:02.026Z,209.8
2022-09-10T04:34:01.101Z,246.7
2022-09-10T04:35:01.110Z,283.5
2022-09-10T04:36:01.783Z,320.4
2022-09-10T04:37:01.423Z,369.1
2022-09-10T04:38:01.411Z,417.7
2022-09-10T04:39:01.199Z,479.1
2022-09-10T04:40:01.216Z,540.4
2022-09-10T04:41:02.883Z,601.7
2022-09-10T04:43:01.629Z,751.9
2022-09-10T04:44:01.105Z,841.3
2022-09-10T04:45:01.110Z,930.7
2022-09-10T04:46:01.605Z,1020.1
2022-09-10T04:47:01.147Z,1127.7
2022-09-10T04:48:04.897Z,1235.3
2022-09-10T04:50:01.112Z,1502.5
2022-09-10T04:54:08.598Z,2144.1
2022-09-10T04:55:01.190Z,2324.9
2022-09-10T05:00:26.473Z,3274.2
2022-09-10T05:01:01.292Z,3469.3
2022-09-10T05:05:06.895Z,4165.0
2022-09-10T05:07:03.375Z,4466.3
2022-09-10T05:09:17.481Z,4733.9
2022-09-10T05:10:01.122Z,4864.6
2022-09-10T05:11:01.119Z,4995.3
2022-09-10T05:16:01.385Z,5637.1
2022-09-10T05:18:01.104Z,6034.5
2022-09-10T05:19:07.067Z,6257.9
2022-09-10T05:21:03.428Z,6669.1
2022-09-10T05:22:06.298Z,6905.5
2022-09-10T05:24:02.727Z,7391.5
2022-09-10T05:25:02.186Z,7630.7
2022-09-10T05:26:16.122Z,7869.8
2022-09-10T05:27:01.320Z,8209.3
2022-09-10T05:29:16.175Z,8899.6
2022-09-10T05:30:01.089Z,9244.4
2022-09-10T05:32:04.531Z,9967.7
2022-09-10T05:34:16.183Z,10735.5
2022-09-10T05:35:01.185Z,11124.9
2022-09-10T05:36:01.107Z,11514.3
2022-09-10T05:37:01.386Z,11941.2
2022-09-10T05:38:02.151Z,12368.1
2022-09-10T05:39:01.156Z,12855.6
2022-09-10T05:40:01.151Z,13343.1
2022-09-10T05:41:01.202Z,13830.7
2022-09-10T05:42:01.357Z,14345.9
2022-09-10T05:43:01.223Z,14861.1
2022-09-10T05:44:01.920Z,15435.0
2022-09-10T05:45:01.192Z,16008.9
2022-09-10T05:46:01.165Z,16582.9
2022-09-10T05:47:01.336Z,17297.0
2022-09-10T05:48:01.115Z,18011.1
2022-09-10T05:49:01.806Z,18924.7
2022-09-10T05:50:01.154Z,19838.3
2022-09-10T05:51:01.115Z,20751.9
2022-09-10T05:52:01.459Z,21828.9
2022-09-10T05:53:01.176Z,22905.9
2022-09-10T05:54:01.131Z,24118.5
2022-09-10T05:55:01.170Z,25331.1
2022-09-10T05:56:01.115Z,26543.7
2022-09-10T05:57:01.350Z,27841.3
2022-09-10T05:58:01.180Z,29138.9
2022-09-10T05:59:01.876Z,30363.4
2022-09-10T06:00:01.124Z,31587.9
2022-09-10T06:01:01.113Z,32812.3
2022-09-10T06:02:01.400Z,33890.5
2022-09-10T06:03:01.279Z,34968.6
2022-09-10T06:04:01.870Z,35921.7
2022-09-10T06:05:01.108Z,36874.7
2022-09-10T06:06:01.196Z,37827.8
2022-09-10T06:07:01.451Z,38674.6
2022-09-10T06:08:03.340Z,39521.4
2022-09-10T06:09:01.826Z,40143.5
2022-09-10T06:10:01.145Z,40765.5
2022-09-10T06:11:01.127Z,41387.6
2022-09-10T06:12:01.419Z,41858.5
2022-09-10T06:13:01.138Z,42329.3
2022-09-10T06:14:01.615Z,42903.4
2022-09-10T06:15:01.115Z,43477.5
2022-09-10T06:16:01.207Z,44051.5
2022-09-10T06:17:01.409Z,44893.5
2022-09-10T06:18:01.119Z,45735.4
2022-09-10T06:19:01.609Z,46676.9
2022-09-10T06:20:01.526Z,47618.3
2022-09-10T06:21:01.116Z,48559.8
2022-09-10T06:22:01.324Z,49376.1
2022-09-10T06:23:01.397Z,50192.3
2022-09-10T06:24:01.772Z,50902.8
2022-09-10T06:25:01.167Z,51613.3
2022-09-10T06:27:06.741Z,52249.1
2022-09-10T06:28:01.108Z,52823.1
2022-09-10T06:29:01.616Z,53435.9
2022-09-10T06:30:01.148Z,53858.9
2022-09-10T06:31:01.228Z,54281.8
2022-09-10T06:32:01.273Z,54983.4
2022-09-10T06:33:01.184Z,55355.7
2022-09-10T06:34:01.531Z,55905.4
2022-09-10T06:35:01.139Z,56237.8
2022-09-10T06:36:01.101Z,56570.2
2022-09-10T06:37:01.315Z,56702.8
2022-09-10T06:38:01.110Z,56835.2
2022-09-10T06:39:01.861Z,56806.1
2022-09-10T06:40:01.202Z,56865.2
2022-09-10T06:41:01.105Z,56924.3
2022-09-10T06:42:01.369Z,57236.1
2022-09-10T06:43:01.108Z,57548.0
2022-09-10T06:44:01.728Z,58256.9
2022-09-10T06:45:01.190Z,58965.9
2022-09-10T06:46:01.143Z,59674.8
2022-09-10T06:47:46.151Z,60146.5
2022-09-10T07:07:00.738Z,55527.7
2022-09-10T07:08:00.739Z,54817.0
2022-09-10T07:09:00.745Z,54350.2
2022-09-10T07:10:00.977Z,54039.0
2022-09-10T07:11:00.735Z,53816.7
2022-09-10T07:12:00.739Z,52949.1
2022-09-10T07:13:00.738Z,52274.3
2022-09-10T07:14:00.738Z,51302.3
2022-09-10T07:16:00.793Z,49844.3
2022-09-10T07:17:00.741Z,49475.8
2022-09-10T07:18:00.834Z,49159.9
2022-09-10T07:19:00.752Z,48886.2
2022-09-10T07:20:00.959Z,48568.8
2022-09-10T07:21:00.794Z,48251.4
2022-09-10T07:22:00.747Z,48715.2
2022-09-10T07:23:00.750Z,49179.0
2022-09-10T07:24:00.740Z,49656.3
2022-09-10T07:25:00.967Z,50426.1
2022-09-10T07:26:00.785Z,51195.9
2022-09-10T07:27:00.873Z,52439.8
2022-09-10T07:28:00.747Z,53683.7
2022-09-10T07:29:00.842Z,55215.8
2022-09-10T07:31:00.767Z,58279.9
2022-09-10T07:32:00.747Z,59645.3
2022-09-10T07:33:00.817Z,61010.7
2022-09-10T07:34:00.755Z,62376.1
2022-09-10T07:36:00.754Z,64155.7
2022-09-10T07:37:00.816Z,64548.6
2022-09-10T07:38:00.797Z,64941.5
2022-09-10T07:39:00.757Z,65334.3
2022-09-10T07:40:00.983Z,65434.7
2022-09-10T07:41:00.744Z,65535.0
2022-09-10T07:45:01.775Z,65535.0
2022-09-10T07:47:00.749Z,65455.1
2022-09-10T07:48:00.775Z,65375.1
2022-09-10T07:49:00.769Z,65295.2
2022-09-10T07:51:00.754Z,64762.3
2022-09-10T07:52:01.013Z,64173.4
2022-09-10T07:53:01.039Z,63584.5
2022-09-10T07:54:00.757Z,62995.7
2022-09-10T07:56:00.763Z,61094.6
2022-09-10T07:57:00.771Z,59815.3
2022-09-10T07:58:03.991Z,58536.1
2022-09-10T07:59:00.765Z,57256.8
2022-09-10T08:01:00.855Z,54147.2
2022-09-10T08:02:00.796Z,52467.7
2022-09-10T08:03:00.755Z,50788.1
2022-09-10T08:04:00.763Z,49108.6
2022-09-10T08:05:02.030Z,47397.5
2022-09-10T08:06:00.837Z,45686.3
2022-09-10T08:07:00.771Z,44116.4
2022-09-10T08:08:00.760Z,42546.5
2022-09-10T08:09:00.783Z,40976.5
2022-09-10T08:10:06.035Z,39699.5
2022-09-10T08:11:00.767Z,38422.4
2022-09-10T08:12:00.769Z,37470.3
2022-09-10T08:13:00.772Z,36518.1
2022-09-10T08:14:00.764Z,35566.0
2022-09-10T08:16:00.810Z,34270.5
2022-09-10T08:17:00.764Z,33801.6
2022-09-10T08:18:00.770Z,33332.7
2022-09-10T08:19:00.856Z,32863.7
2022-09-10T08:20:00.984Z,32594.3
2022-09-10T08:21:00.765Z,32324.8
2022-09-10T08:22:00.793Z,32224.1
2022-09-10T08:23:00.775Z,32123.5
2022-09-10T08:24:01.073Z,32022.8
2022-09-10T08:25:01.011Z,32033.0
2022-09-10T08:26:00.790Z,32043.2
2022-09-10T08:27:05.837Z,32101.5
2022-09-10T08:28:00.765Z,32159.7
2022-09-10T08:29:00.773Z,32218.0
2022-09-10T08:30:01.644Z,32314.3
2022-09-10T08:31:01.090Z,32410.7
2022-09-10T08:32:00.799Z,32664.3
2022-09-10T08:33:01.043Z,32917.9
2022-09-10T08:34:00.764Z,33171.5
2022-09-10T08:35:00.984Z,33660.9
2022-09-10T08:36:00.776Z,34150.3
2022-09-10T08:37:00.805Z,34964.6
2022-09-10T08:38:01.796Z,35778.9
2022-09-10T08:39:03.125Z,36593.3
2022-09-10T08:40:01.016Z,37806.9
2022-09-10T08:41:00.792Z,39020.5
2022-09-10T08:42:00.797Z,40752.3
2022-09-10T08:43:00.773Z,42484.2
2022-09-10T08:44:00.772Z,44216.1
2022-09-10T08:45:02.235Z,46322.3
2022-09-10T08:46:00.862Z,48428.5
2022-09-10T08:47:00.797Z,50403.3
2022-09-10T08:48:00.772Z,52378.1
2022-09-10T08:49:00.838Z,54352.9
2022-09-10T08:50:00.994Z,56110.5
2022-09-10T08:51:01.055Z,57868.2
2022-09-10T08:52:00.817Z,59313.3
2022-09-10T08:53:00.774Z,60758.5
2022-09-10T08:54:00.770Z,62203.6
2022-09-10T08:55:01.825Z,63207.4
2022-09-10T08:56:00.789Z,64211.2
2022-09-10T08:57:00.861Z,64652.5
2022-09-10T08:58:00.795Z,65093.7
2022-09-10T08:59:01.043Z,65535.0
2022-09-10T09:15:09.598Z,65535.0
2022-09-10T09:30:01.846Z,65535.0
2022-09-10T10:15:01.672Z,65535.0
2022-09-10T10:45:02.064Z,65535.0
2022-09-10T11:30:03.001Z,65535.0
2022-09-10T12:15:02.072Z,65535.0
2022-09-10T12:45:02.706Z,65535.0
2022-09-10T13:00:03.384Z,65535.0
2022-09-10T13:15:01.781Z,65535.0
2022-09-10T13:30:01.647Z,65535.0
2022-09-10T13:45:07.644Z,65535.0
2022-09-10T14:15:01.815Z,65535.0
2022-09-10T14:30:02.533Z,65535.0
2022-09-10T15:20:01.094Z,65019.9
2022-09-10T15:21:00.944Z,64504.7
2022-09-10T15:22:00.876Z,63039.4
2022-09-10T15:23:00.892Z,61574.1
2022-09-10T15:24:00.942Z,60108.7
2022-09-10T15:25:16.386Z,58769.3
2022-09-10T15:26:00.877Z,57429.8
2022-09-10T15:27:00.942Z,55991.4
2022-09-10T15:28:00.944Z,54553.0
2022-09-10T15:29:00.877Z,53114.6
2022-09-10T15:31:00.944Z,49692.5
2022-09-10T15:32:00.880Z,47853.8
2022-09-10T15:33:01.164Z,46015.1
2022-09-10T15:34:05.889Z,44176.5
2022-09-10T15:36:00.884Z,41717.5
2022-09-10T15:37:00.893Z,41637.6
2022-09-10T15:38:00.885Z,41557.7
2022-09-10T15:39:00.933Z,41477.7
2022-09-10T15:41:00.893Z,40949.2
2022-09-10T15:42:00.880Z,40665.1
2022-09-10T15:43:00.887Z,40380.9
2022-09-10T15:44:00.883Z,40096.8
2022-09-10T15:45:01.741Z,39821.9
2022-09-10T15:46:00.921Z,39546.9
2022-09-10T15:47:01.001Z,39181.7
2022-09-10T15:48:00.882Z,38816.4
2022-09-10T15:49:00.886Z,38451.1
2022-09-10T15:51:00.892Z,37762.5
2022-09-10T15:52:01.000Z,37231.5
2022-09-10T15:53:00.882Z,36700.6
2022-09-10T15:54:04.872Z,36169.7
2022-09-10T15:56:00.881Z,35227.3
2022-09-10T15:57:01.918Z,34811.7
2022-09-10T15:58:00.892Z,34396.1
2022-09-10T15:59:00.924Z,33980.5
2022-09-10T16:01:00.902Z,33713.8
2022-09-10T16:02:00.886Z,33761.7
2022-09-10T16:03:00.953Z,33809.7
2022-09-10T16:04:00.895Z,33857.6
2022-09-10T16:06:00.883Z,33543.1
2022-09-10T16:07:00.891Z,33519.5
2022-09-10T16:08:00.890Z,33496.0
2022-09-10T16:09:00.890Z,33472.5
2022-09-10T16:10:01.691Z,33678.3
2022-09-10T16:11:00.978Z,33884.2
2022-09-10T16:12:01.978Z,34050.1
2022-09-10T16:13:00.889Z,34215.9
2022-09-10T16:14:04.475Z,34381.8
2022-09-10T16:16:01.080Z,34270.1
2022-09-10T16:17:00.895Z,34287.4
2022-09-10T16:18:00.897Z,34304.7
2022-09-10T16:19:05.933Z,34322.1
2022-09-10T16:20:01.369Z,34468.3
2022-09-10T16:21:00.893Z,34614.6
2022-09-10T16:22:00.890Z,34481.1
2022-09-10T16:23:00.891Z,34347.7
2022-09-10T16:24:00.909Z,34214.2
2022-09-10T16:25:01.108Z,33783.8
2022-09-10T16:26:00.890Z,33353.4
2022-09-10T16:27:00.900Z,33098.3
2022-09-10T16:28:01.155Z,32843.1
2022-09-10T16:29:00.896Z,32588.0
2022-09-10T16:30:01.613Z,32397.5
2022-09-10T16:31:06.256Z,32207.1
2022-09-10T16:32:00.895Z,31751.2
2022-09-10T16:33:00.892Z,31295.3
2022-09-10T16:34:00.895Z,30839.5
2022-09-10T16:36:00.891Z,29575.5
2022-09-10T16:37:01.203Z,29067.9
2022-09-10T16:38:00.894Z,28560.3
2022-09-10T16:39:00.896Z,28052.7
2022-09-10T16:40:01.155Z,27584.3
2022-09-10T16:41:00.895Z,27115.9
2022-09-10T16:42:00.907Z,26524.7
2022-09-10T16:43:01.171Z,25933.6
2022-09-10T16:44:01.173Z,25342.5
2022-09-10T16:46:05.921Z,24412.6
2022-09-10T16:47:00.895Z,24166.4
2022-09-10T16:48:04.244Z,23920.2
2022-09-10T16:49:00.961Z,23674.0
2022-09-10T16:50:01.669Z,23435.8
2022-09-10T16:51:01.207Z,23197.6
2022-09-10T16:52:00.930Z,22832.1
2022-09-10T16:53:00.964Z,22466.7
2022-09-10T16:54:00.972Z,22101.2
2022-09-10T16:55:02.582Z,21678.7
2022-09-10T16:56:00.906Z,21256.1
2022-09-10T16:57:00.981Z,20840.3
2022-09-10T16:58:00.906Z,20424.4
2022-09-10T16:59:00.898Z,20008.5
2022-09-10T17:00:03.193Z,19573.0
2022-09-10T17:01:00.907Z,19137.5
2022-09-10T17:02:00.966Z,18662.0
2022-09-10T17:03:00.992Z,18186.5
2022-09-10T17:04:01.031Z,17711.1
2022-09-10T17:05:01.601Z,17323.7
2022-09-10T17:06:00.932Z,16936.3
2022-09-10T17:07:00.935Z,16723.3
2022-09-10T17:08:00.910Z,16510.3
2022-09-10T17:09:00.903Z,16297.3
2022-09-10T17:11:00.986Z,15960.3
2022-09-10T17:12:00.911Z,15784.7
2022-09-10T17:13:00.903Z,15609.0
2022-09-10T17:14:00.916Z,15433.3
2022-09-10T17:16:02.484Z,15056.3
2022-09-10T17:17:00.904Z,14866.5
2022-09-10T17:18:00.908Z,14676.7
2022-09-10T17:19:00.910Z,14486.9
2022-09-10T17:21:00.948Z,14075.9
2022-09-10T17:22:00.913Z,13755.7
2022-09-10T17:23:00.937Z,13435.5
2022-09-10T17:24:00.908Z,13115.3
2022-09-10T17:26:00.939Z,12431.6
2022-09-10T17:27:00.909Z,12091.1
2022-09-10T17:28:00.913Z,11750.7
2022-09-10T17:29:00.915Z,11410.2
2022-09-10T17:31:01.016Z,10709.4
2022-09-10T17:32:00.916Z,10350.7
2022-09-10T17:33:00.912Z,9991.9
2022-09-10T17:34:00.925Z,9633.2
2022-09-10T17:36:00.941Z,8911.6
2022-09-10T17:37:00.911Z,8572.5
2022-09-10T17:38:00.916Z,8233.5
2022-09-10T17:39:00.946Z,7894.4
2022-09-10T17:41:00.953Z,7253.3
2022-09-10T17:42:00.917Z,6934.4
2022-09-10T17:43:01.067Z,6615.5
2022-09-10T17:44:00.918Z,6296.5
2022-09-10T17:46:01.541Z,5684.1
2022-09-10T17:47:00.944Z,5386.7
2022-09-10T17:48:01.206Z,5089.2
2022-09-10T17:49:00.923Z,4791.7
2022-09-10T17:50:01.646Z,4507.6
2022-09-10T17:51:00.915Z,4223.5
2022-09-10T17:52:00.947Z,3961.9
2022-09-10T17:53:01.207Z,3700.3
2022-09-10T17:54:00.934Z,3438.7
2022-09-10T17:56:00.923Z,2954.3
2022-09-10T17:57:00.961Z,2740.3
2022-09-10T17:58:00.937Z,2526.3
2022-09-10T17:59:00.933Z,2312.3
2022-09-10T18:00:08.040Z,2124.1
2022-09-10T18:01:00.918Z,1935.9
2022-09-10T18:02:00.979Z,1781.2
2022-09-10T18:03:00.934Z,1626.5
2022-09-10T18:04:00.978Z,1471.9
2022-09-10T18:05:01.139Z,1348.6
2022-09-10T18:06:01.954Z,1225.3
2022-09-10T18:07:00.952Z,1124.0
2022-09-10T18:08:00.924Z,1022.7
2022-09-10T18:09:00.973Z,921.3
2022-09-10T18:10:01.136Z,835.3
2022-09-10T18:11:00.949Z,749.2
2022-09-10T18:12:01.237Z,676.1
2022-09-10T18:13:00.925Z,603.1
2022-09-10T18:14:00.920Z,530.0
2022-09-10T18:16:00.973Z,408.5
2022-09-10T18:17:00.959Z,362.5
2022-09-10T18:18:00.928Z,316.5
2022-09-10T18:19:00.925Z,270.5
2022-09-10T18:20:01.276Z,236.7
2022-09-10T18:21:01.017Z,202.9
2022-09-10T18:22:00.979Z,177.9
2022-09-10T18:23:00.932Z,152.8
2022-09-10T18:24:00.928Z,127.7
2022-09-10T18:25:01.157Z,109.9
2022-09-10T18:26:00.929Z,92.0
2022-09-10T18:27:01.265Z,80.5
2022-09-10T18:28:00.930Z,69.1
2022-09-10T18:29:00.940Z,57.6
2022-09-10T18:31:00.945Z,41.3
2022-09-10T18:32:00.959Z,35.6
2022-09-10T18:33:00.938Z,29.9
2022-09-10T18:34:00.929Z,24.1
2022-09-10T18:35:01.214Z,20.4
2022-09-10T18:36:00.936Z,16.7
2022-09-10T18:37:05.984Z,14.4
2022-09-10T18:38:00.938Z,12.1
2022-09-10T18:39:00.938Z,9.9
2022-09-10T18:40:01.505Z,8.4
2022-09-10T18:41:00.942Z,6.9
2022-09-10T18:42:01.061Z,6.0
2022-09-10T18:43:00.992Z,5.1
2022-09-10T18:44:01.213Z,4.1
2022-09-10T18:46:00.962Z,2.9
2022-09-10T18:47:01.178Z,2.6
2022-09-10T18:48:00.955Z,2.3
2022-09-10T18:49:00.941Z,1.9
2022-09-10T18:50:03.288Z,1.7
2022-09-10T18:51:00.941Z,1.4
2022-09-10T18:52:00.943Z,1.2
2022-09-10T18:53:00.972Z,1.0
2022-09-10T18:54:04.130Z,0.8
2022-09-10T18:55:01.198Z,0.7
2022-09-10T18:56:01.026Z,0.5
2022-09-10T18:58:01.101Z,0.4
2022-09-10T18:59:01.102Z,0.3
2022-09-10T19:01:00.942Z,0.2
2022-09-10T19:02:01.057Z,0.1
2022-09-10T21:15:02.212Z,0.1
2022-09-10T21:17:01.006Z,0.2
2022-09-10T22:22:01.086Z,0.2
2022-09-10T22:23:01.019Z,0.3
2022-09-10T22:25:01.306Z,0.4
2022-09-10T22:26:01.018Z,0.5
2022-09-10T22:28:01.023Z,0.6
2022-09-10T22:29:01.020Z,0.7
2022-09-10T22:31:01.065Z,0.8
2022-09-10T22:32:01.025Z,0.9
2022-09-10T22:34:01.030Z,1.0
2022-09-10T22:48:01.027Z,0.9
2022-09-10T23:04:01.182Z,1.0
2022-09-10T23:30:03.106Z,1.0
2022-09-10T23:45:01.980Z,1.0
2022-09-10T23:48:01.080Z,0.9
2022-09-10T23:50:01.528Z,0.8
2022-09-10T23:51:01.300Z,0.7
2022-09-10T23:53:01.056Z,0.6
2022-09-10T23:54:01.050Z,0.5
2022-09-10T23:56:01.054Z,0.4
2022-09-10T23:57:01.310Z,0.3
2022-09-10T23:59:01.058Z,0.2
